الصفحة الرئيسية
METAR-TAF:

METAR-TAF

مطار :

مطار البحرين الدولي

البحرين, البحرين

دائرة عرض: 26-16N, خط طول: 050-39E, ارتفاع: 2 متر

مراقبة الطقس الحالي

تاريخ ووقت الإصدار 27 دقيقة قبل الساعة 05:00UTC
ريح 15 عقدة من الشمال الغربي
درجة الحرارة 34°درجة مئوية
الرطوبة 47%
ضغط 1004 hPa
الرؤية 10 كم أو أكثر
الغيوم لا تقل 1500 م ولا وجود لمزنة ركامية السحاب الأسود

METAR: OBBI 010500Z 31015KT CAVOK 34/21 Q1004 NOSIG

زمن: 08:27 (05:27 UTC)

توقعات

تاريخ ووقت الإصدار 6ساعات و 27 دقيقة قبل الساعة 23:00UTC
التوقعات صالحة من01 الساعة 00 UTC إلى 02 الساعة 06 UTC
ريح 7 عقدة من الغرب/الشمال الغربي
الرؤية 10 كم أو أكثر
الغيوم لا تقل 1500 م ولا وجود لمزنة ركامية السحاب الأسود

TAF: OBBI 312300Z 0100/0206 30007KT CAVOK

أرصاد الطقس والتوقعات من أكثر من 4000 مطار (تقارير الطقس للمطار METAR والتنبؤ بالطقس بالمطارTAF).

المحطات المتاحة هي النقط الصفراء والحمراء على الخريطة.

حرك المؤشر فوق النقطة لمعرفة اسم المحطة.

ثم انقر لمعرفة أرصاد وتوقعات الطقس.

لتغيير الخارطة: اضغط على الأزرار الخضراء مع رمز الصليب الأسود للتكبير. على الزر الأخضر مع شرطة للتصغير، أو على الأسهم الخضراء للخرائط المجاورة.


METAR-TAF: